Time;durP1;ratioP1;P1;durP2;ratioP2;P2;SDS_P1;SDS_P2;PMS_P1;PMS_P2;Temp;Humidity;BMP_temperature;BMP_pressure;BME280_temperature;BME280_humidity;BME280_pressure;Samples;Min_cycle;Max_cycle;Signal;HPM_P1;HPM_P2
2022/03/04 00:01:37;;;;;;;0.40;0.40;;;11.10;99.90;;;;;;6345292;22;20185;-94
2022/03/04 00:04:09;;;;;;;2.83;0.40;;;10.90;99.90;;;;;;6349270;22;20173;-94
2022/03/04 00:06:40;;;;;;;0.60;0.40;;;10.70;99.90;;;;;;6358666;22;20173;-95
2022/03/04 00:11:52;;;;;;;1.20;0.60;;;10.60;99.90;;;;;;6357647;22;20302;-94
2022/03/04 00:14:26;;;;;;;1.77;0.57;;;10.40;99.90;;;;;;6322897;22;20173;-94
2022/03/04 00:16:58;;;;;;;0.43;0.37;;;10.10;99.90;;;;;;6345592;22;20271;-94
2022/03/04 00:19:30;;;;;;;0.70;0.40;;;10.10;99.90;;;;;;6351946;22;20161;-94
2022/03/04 00:22:01;;;;;;;0.40;0.40;;;10.10;99.90;;;;;;6361114;22;20177;-93
2022/03/04 00:24:32;;;;;;;0.77;0.57;;;10.10;99.90;;;;;;6355057;22;20178;-94
2022/03/04 00:27:06;;;;;;;0.73;0.50;;;10.10;99.90;;;;;;6343711;22;20170;-93
2022/03/04 00:29:37;;;;;;;1.90;0.50;;;10.10;99.90;;;;;;6345738;22;20176;-93
2022/03/04 00:32:08;;;;;;;1.80;0.40;;;10.10;99.90;;;;;;6355211;22;20162;-92
2022/03/04 00:34:42;;;;;;;1.23;0.50;;;10.00;99.90;;;;;;6355171;22;20166;-91
2022/03/04 00:37:14;;;;;;;1.80;0.40;;;10.00;99.90;;;;;;6343850;22;20185;-94
2022/03/04 00:39:45;;;;;;;0.43;0.40;;;9.90;99.90;;;;;;6341636;22;20174;-94
2022/03/04 00:42:18;;;;;;;1.43;0.60;;;9.80;99.90;;;;;;6347169;22;20182;-93
2022/03/04 00:44:48;;;;;;;0.63;0.40;;;9.70;99.90;;;;;;6345507;22;20596;-93
2022/03/04 00:47:19;;;;;;;2.60;0.63;;;9.60;99.90;;;;;;6344060;22;20174;-94
2022/03/04 00:49:51;;;;;;;0.47;0.40;;;9.60;99.90;;;;;;6341912;22;20173;-94
2022/03/04 00:52:23;;;;;;;0.47;0.47;;;9.50;99.90;;;;;;6342491;22;20181;-94
2022/03/04 00:54:54;;;;;;;0.53;0.53;;;9.50;99.90;;;;;;6345200;22;20165;-94
2022/03/04 00:57:27;;;;;;;1.17;0.50;;;9.50;99.90;;;;;;6342248;22;20166;-94
2022/03/04 00:59:59;;;;;;;0.67;0.40;;;9.40;99.90;;;;;;6352092;22;20191;-94
2022/03/04 01:02:30;;;;;;;0.83;0.60;;;9.40;99.90;;;;;;6348071;22;20173;-93
2022/03/04 01:05:02;;;;;;;2.93;0.50;;;9.40;99.90;;;;;;6363196;22;20187;-94
2022/03/04 01:10:16;;;;;;;1.97;0.50;;;9.20;99.90;;;;;;6334658;22;20204;-91
2022/03/04 01:15:25;;;;;;;1.67;0.80;;;9.10;99.90;;;;;;6362549;22;20233;-93
2022/03/04 01:17:57;;;;;;;1.00;0.40;;;9.00;99.90;;;;;;6359052;22;20173;-94
2022/03/04 01:20:29;;;;;;;1.80;0.50;;;9.00;99.90;;;;;;6360402;22;20176;-92
2022/03/04 01:23:01;;;;;;;0.50;0.47;;;9.00;99.90;;;;;;6355332;22;20632;-93
2022/03/04 01:25:42;;;;;;;10.10;1.10;;;9.00;99.90;;;;;;6359809;22;20161;-94
2022/03/04 01:28:17;;;;;;;7.20;0.70;;;8.90;99.90;;;;;;6359824;22;20162;-95
2022/03/04 01:30:51;;;;;;;1.00;0.70;;;8.90;99.90;;;;;;6359081;22;20199;-92
2022/03/04 01:33:23;;;;;;;0.33;0.33;;;8.90;99.90;;;;;;6358914;22;20201;-94
2022/03/04 01:35:54;;;;;;;0.53;0.40;;;8.80;99.90;;;;;;6358056;22;20161;-92
2022/03/04 01:38:25;;;;;;;0.80;0.40;;;8.80;99.90;;;;;;6347034;22;20194;-94
2022/03/04 01:40:56;;;;;;;0.97;0.60;;;8.70;99.90;;;;;;6319275;22;20162;-95
2022/03/04 01:43:28;;;;;;;0.50;0.50;;;8.70;99.90;;;;;;6328275;22;20171;-91
2022/03/04 01:46:13;;;;;;;0.40;0.40;;;8.50;99.90;;;;;;6327625;22;20481;-92
2022/03/04 01:48:46;;;;;;;0.90;0.40;;;8.40;99.90;;;;;;6333466;22;20177;-92
2022/03/04 01:51:17;;;;;;;0.60;0.47;;;8.30;99.90;;;;;;6334358;22;20154;-95
2022/03/04 01:53:48;;;;;;;0.40;0.40;;;8.30;99.90;;;;;;6333922;22;20284;-92
2022/03/04 01:56:19;;;;;;;0.63;0.50;;;8.30;99.90;;;;;;6334710;22;20204;-94
2022/03/04 01:58:50;;;;;;;2.27;0.60;;;8.20;99.90;;;;;;6331584;22;20193;-94
2022/03/04 02:01:24;;;;;;;0.87;0.60;;;8.10;99.90;;;;;;6320668;22;20189;-94
2022/03/04 02:03:55;;;;;;;2.33;0.63;;;8.10;99.90;;;;;;6312120;22;20166;-93
2022/03/04 02:06:26;;;;;;;1.07;0.67;;;8.00;99.90;;;;;;6316754;22;20204;-94
2022/03/04 02:08:58;;;;;;;0.90;0.70;;;7.90;99.90;;;;;;6311669;22;20166;-94
2022/03/04 02:11:30;;;;;;;1.03;0.80;;;7.90;99.90;;;;;;6313245;22;20206;-93
2022/03/04 02:14:01;;;;;;;0.80;0.60;;;7.80;99.90;;;;;;6299275;22;20186;-94
2022/03/04 02:16:38;;;;;;;2.97;1.10;;;7.80;99.90;;;;;;6333382;22;20176;-94
2022/03/04 02:19:10;;;;;;;2.33;1.30;;;7.70;99.90;;;;;;6319710;22;20204;-94
2022/03/04 02:21:52;;;;;;;2.00;1.70;;;7.70;99.90;;;;;;6316214;22;20178;-93
2022/03/04 02:24:24;;;;;;;4.90;1.97;;;7.60;99.90;;;;;;6316014;22;20174;-93
2022/03/04 02:26:57;;;;;;;4.13;3.10;;;7.50;99.90;;;;;;6312358;22;20166;-93
2022/03/04 02:29:30;;;;;;;4.73;3.03;;;7.50;99.90;;;;;;6314952;22;20677;-93
2022/03/04 02:32:00;;;;;;;3.93;2.27;;;7.50;99.90;;;;;;6314691;22;20193;-94
2022/03/04 02:34:32;;;;;;;2.40;2.20;;;7.40;99.90;;;;;;6323080;22;20202;-94
2022/03/04 02:37:06;;;;;;;2.77;2.03;;;7.40;99.90;;;;;;6329459;22;20200;-95
2022/03/04 02:39:37;;;;;;;2.13;1.93;;;7.40;99.90;;;;;;6323408;22;20166;-94
2022/03/04 02:42:08;;;;;;;3.50;1.80;;;7.40;99.90;;;;;;6327116;22;20227;-95
2022/03/04 02:44:39;;;;;;;2.30;2.07;;;7.40;99.90;;;;;;6330656;22;20170;-92
2022/03/04 02:47:11;;;;;;;2.50;1.60;;;7.40;99.90;;;;;;6335455;22;20158;-96
2022/03/04 02:49:43;;;;;;;2.07;1.73;;;7.50;99.90;;;;;;6336248;22;20188;-94
2022/03/04 02:52:18;;;;;;;1.37;1.20;;;7.50;99.90;;;;;;6336401;22;20445;-92
2022/03/04 02:54:49;;;;;;;1.43;1.33;;;7.60;99.90;;;;;;6335871;22;20205;-93
2022/03/04 02:57:21;;;;;;;4.50;2.30;;;7.60;99.90;;;;;;6335856;22;20169;-93
2022/03/04 02:59:53;;;;;;;2.40;1.83;;;7.50;99.90;;;;;;6335011;22;20172;-94
2022/03/04 03:02:24;;;;;;;3.10;1.90;;;7.50;99.90;;;;;;6329523;22;20234;-94
2022/03/04 03:04:56;;;;;;;2.43;1.40;;;7.50;99.90;;;;;;6303718;22;20180;-94
2022/03/04 03:07:29;;;;;;;2.70;1.30;;;7.40;99.90;;;;;;6329248;22;20178;-94
2022/03/04 03:10:00;;;;;;;1.53;1.03;;;7.40;99.90;;;;;;6333925;22;20178;-94
2022/03/04 03:12:33;;;;;;;3.27;1.20;;;7.40;99.90;;;;;;6331650;22;20175;-93
2022/03/04 03:15:04;;;;;;;1.80;1.23;;;7.40;99.90;;;;;;6332141;22;20179;-93
2022/03/04 03:17:36;;;;;;;1.33;1.13;;;7.30;99.90;;;;;;6327515;22;20601;-93
2022/03/04 03:20:09;;;;;;;2.17;1.30;;;7.40;99.90;;;;;;6276771;22;20174;-95
2022/03/04 03:22:44;;;;;;;2.97;1.60;;;7.40;99.90;;;;;;6302671;22;20200;-94
2022/03/04 03:25:15;;;;;;;1.73;1.40;;;7.40;99.90;;;;;;6332156;22;20153;-94
2022/03/04 03:27:47;;;;;;;1.90;1.20;;;7.40;99.90;;;;;;6333918;22;20157;-92
2022/03/04 03:30:21;;;;;;;3.47;0.90;;;7.40;99.90;;;;;;6309718;22;20170;-92
2022/03/04 03:38:19;;;;;;;2.10;0.90;;;7.20;99.90;;;;;;6332280;22;20205;-94
2022/03/04 03:40:50;;;;;;;2.27;1.73;;;7.20;99.90;;;;;;6332513;22;20166;-94
2022/03/04 03:43:41;;;;;;;2.83;0.70;;;7.00;99.90;;;;;;6332510;22;20201;-93
2022/03/04 03:46:13;;;;;;;0.90;0.80;;;6.90;99.90;;;;;;6334407;22;20204;-92
2022/03/04 03:48:45;;;;;;;3.73;0.93;;;6.80;99.90;;;;;;6331742;22;20193;-90
2022/03/04 03:51:16;;;;;;;2.50;1.10;;;6.80;99.90;;;;;;6331768;22;20185;-91
2022/03/04 03:53:49;;;;;;;1.00;0.83;;;6.60;99.90;;;;;;6331419;22;20174;-94
2022/03/04 03:56:20;;;;;;;1.37;0.97;;;6.50;99.90;;;;;;6331664;22;20238;-93
2022/03/04 03:58:51;;;;;;;0.77;0.70;;;6.50;99.90;;;;;;6334826;22;20170;-93
2022/03/04 04:01:22;;;;;;;1.63;0.80;;;6.40;99.90;;;;;;6329025;22;20206;-92
2022/03/04 04:03:53;;;;;;;1.03;0.73;;;6.40;99.90;;;;;;6334916;22;20174;-92
2022/03/04 04:06:25;;;;;;;1.10;0.80;;;6.30;99.90;;;;;;6334188;22;20182;-94
2022/03/04 04:08:59;;;;;;;3.57;0.80;;;6.30;99.90;;;;;;6329665;22;20212;-93
2022/03/04 04:11:32;;;;;;;2.07;1.00;;;6.30;99.90;;;;;;6321711;22;20202;-93
2022/03/04 04:14:03;;;;;;;2.27;1.10;;;6.20;99.90;;;;;;6333233;22;20185;-94
2022/03/04 04:16:35;;;;;;;1.90;1.07;;;6.10;99.90;;;;;;6331200;22;20166;-93
2022/03/04 04:19:07;;;;;;;4.00;1.53;;;6.10;99.90;;;;;;6330960;22;20193;-93
2022/03/04 04:21:39;;;;;;;3.23;2.53;;;6.00;99.90;;;;;;6331474;22;20170;-92
2022/03/04 04:24:13;;;;;;;1.50;1.40;;;5.90;99.90;;;;;;6329857;22;20174;-93
2022/03/04 04:42:52;;;;;;;1.40;0.87;;;5.80;99.90;;;;;;6330174;22;20282;-92
2022/03/04 04:45:24;;;;;;;0.83;0.70;;;5.90;99.90;;;;;;6330828;22;20173;-94
2022/03/04 04:47:55;;;;;;;1.23;0.80;;;6.00;99.90;;;;;;6331621;22;20161;-93
2022/03/04 04:50:27;;;;;;;1.70;0.80;;;6.00;99.90;;;;;;6308784;22;20178;-92
2022/03/04 04:52:59;;;;;;;1.03;0.83;;;6.10;99.90;;;;;;6335707;22;20151;-93
2022/03/04 04:55:30;;;;;;;0.83;0.70;;;6.10;99.90;;;;;;6335445;22;20269;-93
2022/03/04 04:58:04;;;;;;;1.10;0.50;;;6.10;99.90;;;;;;6308995;22;20185;-90
2022/03/04 05:00:36;;;;;;;1.30;0.90;;;6.10;99.90;;;;;;6334713;22;20173;-92
2022/03/04 05:05:40;;;;;;;1.90;0.67;;;6.00;99.90;;;;;;6334839;22;20242;-93
2022/03/04 05:08:11;;;;;;;1.20;0.80;;;6.00;99.90;;;;;;6307791;22;20155;-93
2022/03/04 05:10:43;;;;;;;1.20;0.70;;;6.00;99.90;;;;;;6332334;22;20197;-92
2022/03/04 05:13:16;;;;;;;1.50;0.63;;;6.10;99.90;;;;;;6307373;22;20157;-92
2022/03/04 05:15:48;;;;;;;0.60;0.50;;;6.10;99.90;;;;;;6333189;22;20220;-93
2022/03/04 05:18:19;;;;;;;0.67;0.60;;;6.20;99.90;;;;;;6330487;22;20166;-93
2022/03/04 05:20:51;;;;;;;1.00;0.50;;;6.30;99.90;;;;;;6333727;22;20205;-93
2022/03/04 05:26:10;;;;;;;1.30;0.53;;;6.40;99.90;;;;;;6334754;22;20170;-95
2022/03/04 05:28:44;;;;;;;1.10;0.80;;;6.50;99.90;;;;;;6334146;22;20209;-96
2022/03/04 05:31:15;;;;;;;1.40;0.80;;;6.50;99.90;;;;;;6333447;22;20162;-93
2022/03/04 05:33:47;;;;;;;1.37;0.47;;;6.50;99.90;;;;;;6334203;22;20160;-94
2022/03/04 05:36:18;;;;;;;1.20;0.50;;;6.50;99.90;;;;;;6332811;22;20205;-94
2022/03/04 05:38:50;;;;;;;0.97;0.60;;;6.50;99.90;;;;;;6329967;22;20173;-94
2022/03/04 05:41:21;;;;;;;0.80;0.50;;;6.50;99.90;;;;;;6303069;22;20170;-93
2022/03/04 05:43:55;;;;;;;0.50;0.50;;;6.50;99.90;;;;;;6328536;22;20620;-93
2022/03/04 05:46:26;;;;;;;0.70;0.60;;;6.60;99.90;;;;;;6328408;22;20241;-93
2022/03/04 05:48:57;;;;;;;0.63;0.57;;;6.70;99.90;;;;;;6327213;22;20522;-93
2022/03/04 05:51:30;;;;;;;3.00;1.00;;;6.70;99.90;;;;;;6301111;22;20170;-93
2022/03/04 05:54:01;;;;;;;1.27;0.70;;;6.60;99.90;;;;;;6302259;22;20178;-93
2022/03/04 05:56:33;;;;;;;1.83;1.00;;;6.60;99.90;;;;;;6325645;22;20200;-92
2022/03/04 05:59:07;;;;;;;1.63;1.20;;;6.50;99.90;;;;;;6324755;22;20178;-93
2022/03/04 06:01:39;;;;;;;3.83;1.30;;;6.50;99.90;;;;;;6325673;22;20178;-93
2022/03/04 06:04:10;;;;;;;2.03;1.00;;;6.60;99.90;;;;;;6315522;22;20189;-94
2022/03/04 06:06:42;;;;;;;1.27;1.17;;;6.50;99.90;;;;;;6323131;22;20231;-94
2022/03/04 06:09:13;;;;;;;3.13;1.20;;;6.40;99.90;;;;;;6292765;22;20174;-94
2022/03/04 06:11:45;;;;;;;1.10;1.00;;;6.30;99.90;;;;;;6323417;22;20157;-93
2022/03/04 06:14:19;;;;;;;1.17;0.97;;;6.20;99.90;;;;;;6332925;22;20178;-94
2022/03/04 06:16:50;;;;;;;2.13;1.00;;;6.20;99.90;;;;;;6332352;22;20178;-96
2022/03/04 06:19:23;;;;;;;1.03;0.90;;;6.20;99.90;;;;;;6321705;22;20174;-92
2022/03/04 06:21:54;;;;;;;2.27;1.30;;;6.10;99.90;;;;;;6319233;22;20174;-94
2022/03/04 06:24:25;;;;;;;1.70;1.20;;;6.00;99.90;;;;;;6321111;22;20185;-93
2022/03/04 06:26:56;;;;;;;1.63;0.90;;;6.00;99.90;;;;;;6332305;22;20163;-94
2022/03/04 06:29:31;;;;;;;1.10;0.80;;;6.00;99.90;;;;;;6332926;22;20167;-92
2022/03/04 06:32:02;;;;;;;1.67;1.00;;;6.00;99.90;;;;;;6334425;22;20169;-93
2022/03/04 06:34:33;;;;;;;2.13;0.90;;;5.90;99.90;;;;;;6329954;22;20170;-94
2022/03/04 06:37:04;;;;;;;1.10;0.80;;;5.90;99.90;;;;;;6320725;22;20209;-94
2022/03/04 06:39:36;;;;;;;1.13;0.70;;;5.90;99.90;;;;;;6320149;22;20261;-93
2022/03/04 06:42:07;;;;;;;1.13;0.70;;;5.90;99.90;;;;;;6314717;22;20166;-91
2022/03/04 06:44:41;;;;;;;0.73;0.53;;;5.80;99.90;;;;;;6312947;22;20163;-93
2022/03/04 06:47:12;;;;;;;0.60;0.50;;;5.80;99.90;;;;;;6311812;22;20176;-94
2022/03/04 06:49:43;;;;;;;0.50;0.50;;;5.80;99.90;;;;;;6312697;22;20167;-94
2022/03/04 06:52:14;;;;;;;0.97;0.70;;;5.80;99.90;;;;;;6311893;22;20198;-93
2022/03/04 06:54:45;;;;;;;0.90;0.60;;;5.70;99.90;;;;;;6310821;22;20178;-93
2022/03/04 06:57:16;;;;;;;0.40;0.40;;;5.80;99.90;;;;;;6309429;22;20241;-94
2022/03/04 06:59:49;;;;;;;0.60;0.50;;;5.80;99.90;;;;;;6311638;22;20171;-94
2022/03/04 07:02:21;;;;;;;0.70;0.70;;;5.80;99.90;;;;;;6311008;22;20166;-93
2022/03/04 07:04:52;;;;;;;0.60;0.50;;;5.80;99.90;;;;;;6310285;22;20190;-93
2022/03/04 07:07:23;;;;;;;1.83;0.73;;;5.80;99.90;;;;;;6311401;22;20263;-92
2022/03/04 07:09:54;;;;;;;0.97;0.60;;;5.80;99.90;;;;;;6323933;22;20225;-94
2022/03/04 07:12:26;;;;;;;0.77;0.50;;;5.80;99.90;;;;;;6296255;22;20188;-92
2022/03/04 07:14:59;;;;;;;2.07;0.50;;;5.90;99.90;;;;;;6316805;22;20173;-93
2022/03/04 07:17:30;;;;;;;1.63;0.63;;;6.00;99.90;;;;;;6330394;22;20202;-94
2022/03/04 07:20:01;;;;;;;1.50;0.90;;;6.00;99.90;;;;;;6313699;22;20239;-93
2022/03/04 07:22:34;;;;;;;1.50;0.70;;;6.10;99.90;;;;;;6312989;22;20178;-93
2022/03/04 07:25:06;;;;;;;0.87;0.70;;;6.10;99.90;;;;;;6312427;22;20209;-93
2022/03/04 07:27:39;;;;;;;0.80;0.60;;;6.20;99.90;;;;;;6310483;22;20205;-94
2022/03/04 07:30:14;;;;;;;2.50;0.80;;;6.10;99.90;;;;;;6285184;22;20193;-93
2022/03/04 07:32:46;;;;;;;0.50;0.50;;;6.20;99.90;;;;;;6316122;22;20230;-94
2022/03/04 07:35:17;;;;;;;1.00;0.60;;;6.10;99.90;;;;;;6318989;22;20165;-93
2022/03/04 07:37:50;;;;;;;1.60;1.00;;;6.10;99.90;;;;;;6315120;22;20260;-93
2022/03/04 07:40:21;;;;;;;1.40;1.13;;;6.00;99.90;;;;;;6315444;22;20166;-94
2022/03/04 07:42:52;;;;;;;2.17;1.30;;;6.10;99.90;;;;;;6313205;22;20214;-93
2022/03/04 07:45:25;;;;;;;2.17;1.30;;;6.10;99.90;;;;;;6313079;22;20194;-94
2022/03/04 07:47:56;;;;;;;0.93;0.63;;;6.10;99.90;;;;;;6314787;22;20212;-92
2022/03/04 07:50:27;;;;;;;2.30;1.10;;;6.10;99.90;;;;;;6314385;22;20224;-92
2022/03/04 07:52:58;;;;;;;1.20;0.80;;;6.10;99.90;;;;;;6315394;22;20208;-94
2022/03/04 07:55:29;;;;;;;1.30;0.80;;;6.10;99.90;;;;;;6313049;22;20171;-93
2022/03/04 07:58:01;;;;;;;1.20;0.70;;;6.10;99.90;;;;;;6312386;22;20216;-93
2022/03/04 08:00:33;;;;;;;1.07;0.80;;;6.10;99.90;;;;;;6312739;22;20182;-94
2022/03/04 08:03:09;;;;;;;0.97;0.73;;;6.10;99.90;;;;;;6318647;22;20198;-93
2022/03/04 08:05:41;;;;;;;1.77;1.00;;;6.20;99.90;;;;;;6312967;22;20186;-93
2022/03/04 08:08:12;;;;;;;2.43;0.90;;;6.20;99.90;;;;;;6311270;22;20239;-93
2022/03/04 08:10:43;;;;;;;1.40;0.80;;;6.20;99.90;;;;;;6312060;22;20242;-94
2022/03/04 08:13:15;;;;;;;1.63;1.10;;;6.10;99.90;;;;;;6311928;22;20170;-92
2022/03/04 08:15:48;;;;;;;4.40;1.10;;;6.00;99.90;;;;;;6311347;22;20174;-93
2022/03/04 08:18:19;;;;;;;1.30;1.10;;;6.00;99.90;;;;;;6310143;22;20194;-94
2022/03/04 08:20:50;;;;;;;2.00;1.10;;;5.80;99.90;;;;;;6312084;22;20174;-94
2022/03/04 08:23:21;;;;;;;2.13;1.40;;;5.80;99.90;;;;;;6320086;22;20261;-95
2022/03/04 08:25:52;;;;;;;1.87;1.10;;;5.80;99.90;;;;;;6328036;22;20177;-92
2022/03/04 08:28:23;;;;;;;3.43;1.10;;;5.80;99.90;;;;;;6333783;22;20188;-92
2022/03/04 08:30:55;;;;;;;1.43;1.17;;;5.70;99.90;;;;;;6332619;22;20182;-94
2022/03/04 08:33:27;;;;;;;1.53;1.20;;;5.70;99.90;;;;;;6319359;22;20228;-93
2022/03/04 08:35:58;;;;;;;3.87;1.40;;;5.70;99.90;;;;;;6313524;22;20163;-93
2022/03/04 08:38:29;;;;;;;3.63;2.03;;;5.70;99.90;;;;;;6315232;22;20199;-93
2022/03/04 08:41:00;;;;;;;1.57;1.33;;;5.60;99.90;;;;;;6331622;22;20158;-94
2022/03/04 08:43:34;;;;;;;1.43;1.30;;;5.60;99.90;;;;;;6331720;22;20170;-94
2022/03/04 08:46:08;;;;;;;2.07;1.43;;;5.50;99.90;;;;;;6327650;22;20194;-95
2022/03/04 08:48:38;;;;;;;2.40;1.60;;;5.50;99.90;;;;;;6331325;22;20185;-94
2022/03/04 08:51:10;;;;;;;3.73;1.60;;;5.40;99.90;;;;;;6330694;22;20585;-93
2022/03/04 08:53:40;;;;;;;3.03;1.60;;;5.40;99.90;;;;;;6322936;22;20179;-94
2022/03/04 08:56:12;;;;;;;1.77;1.50;;;5.40;99.90;;;;;;6314337;22;20212;-93
2022/03/04 08:58:44;;;;;;;2.50;1.40;;;5.40;99.90;;;;;;6291911;22;20182;-92
2022/03/04 09:01:16;;;;;;;2.60;1.40;;;5.40;99.90;;;;;;6325282;22;20287;-94
2022/03/04 09:03:48;;;;;;;1.40;1.30;;;5.40;99.90;;;;;;6298856;22;20182;-93
2022/03/04 09:06:20;;;;;;;1.20;1.10;;;5.40;99.90;;;;;;6325693;22;20511;-94
2022/03/04 09:08:51;;;;;;;2.53;1.50;;;5.40;99.90;;;;;;6327157;22;20178;-94
2022/03/04 09:11:22;;;;;;;3.50;1.40;;;5.40;99.90;;;;;;6328024;22;20166;-94
2022/03/04 09:13:53;;;;;;;1.93;1.73;;;5.40;99.90;;;;;;6329399;22;20150;-94
2022/03/04 09:16:26;;;;;;;1.97;1.73;;;5.40;99.90;;;;;;6329102;22;20170;-93
2022/03/04 09:18:57;;;;;;;2.13;1.63;;;5.40;99.90;;;;;;6317431;22;20178;-93
2022/03/04 09:21:29;;;;;;;2.20;1.60;;;5.40;99.90;;;;;;6315532;22;20166;-93
2022/03/04 09:24:00;;;;;;;3.63;1.57;;;5.40;99.90;;;;;;6315484;22;20163;-93
2022/03/04 09:26:31;;;;;;;2.20;1.83;;;5.50;99.90;;;;;;6312694;22;20178;-94
2022/03/04 09:29:01;;;;;;;2.40;2.17;;;5.50;99.90;;;;;;6314123;22;20201;-94
2022/03/04 09:31:35;;;;;;;2.73;2.20;;;5.40;99.90;;;;;;6315502;22;20170;-93
2022/03/04 09:34:07;;;;;;;2.83;2.07;;;5.30;99.90;;;;;;6313824;22;20327;-94
2022/03/04 09:36:38;;;;;;;2.10;1.90;;;5.30;99.90;;;;;;6313903;22;20174;-93
2022/03/04 09:39:11;;;;;;;3.57;2.30;;;5.20;99.90;;;;;;6299968;22;20166;-93
2022/03/04 09:41:45;;;;;;;3.57;2.20;;;5.10;99.90;;;;;;6330894;22;20167;-94
2022/03/04 09:44:17;;;;;;;4.07;2.30;;;5.10;99.90;;;;;;6329550;22;20174;-93
2022/03/04 09:46:51;;;;;;;5.37;2.27;;;5.10;99.90;;;;;;6315707;22;20510;-93
2022/03/04 09:49:31;;;;;;;3.90;2.40;;;5.00;99.90;;;;;;6314885;22;20247;-93
2022/03/04 09:52:02;;;;;;;2.40;2.20;;;5.00;99.90;;;;;;6315929;22;20201;-93
2022/03/04 09:54:33;;;;;;;3.47;2.47;;;4.90;99.90;;;;;;6328583;22;20167;-94
2022/03/04 09:57:05;;;;;;;2.30;1.73;;;4.80;99.90;;;;;;6314124;22;20617;-93
2022/03/04 09:59:36;;;;;;;3.17;2.30;;;4.70;99.90;;;;;;6312362;22;20449;-94
2022/03/04 10:02:09;;;;;;;2.40;2.10;;;4.60;99.90;;;;;;6312433;22;20167;-90
2022/03/04 10:04:41;;;;;;;4.17;1.80;;;4.60;99.90;;;;;;6312681;22;20182;-93
2022/03/04 10:07:13;;;;;;;3.77;2.30;;;4.60;99.90;;;;;;6313079;22;20616;-93
2022/03/04 10:09:47;;;;;;;3.70;2.10;;;4.50;99.90;;;;;;6313161;22;20170;-93
2022/03/04 10:12:20;;;;;;;4.40;2.40;;;4.50;99.90;;;;;;6312168;22;20228;-94
2022/03/04 10:15:03;;;;;;;7.33;3.20;;;4.40;99.90;;;;;;6312480;22;20193;-94
2022/03/04 10:17:38;;;;;;;15.80;3.87;;;4.40;99.90;;;;;;6311720;22;20206;-94
2022/03/04 10:20:12;;;;;;;44.03;4.00;;;4.30;99.90;;;;;;6314997;22;20192;-93
2022/03/04 10:22:45;;;;;;;24.70;4.73;;;4.30;99.90;;;;;;6314142;22;20173;-92
2022/03/04 10:25:19;;;;;;;17.47;3.97;;;4.30;99.90;;;;;;6312986;22;20235;-93
2022/03/04 10:27:50;;;;;;;7.27;3.40;;;4.30;99.90;;;;;;6312284;22;20185;-93
2022/03/04 10:30:31;;;;;;;4.53;3.13;;;4.20;99.90;;;;;;6314417;22;20167;-93
2022/03/04 10:33:12;;;;;;;4.73;3.17;;;4.10;99.90;;;;;;6316100;22;20166;-94
2022/03/04 10:35:44;;;;;;;4.53;2.70;;;4.20;99.90;;;;;;6314266;22;20262;-92
2022/03/04 10:38:26;;;;;;;4.90;3.20;;;4.10;99.90;;;;;;6321718;22;20217;-94
2022/03/04 10:40:58;;;;;;;3.63;2.80;;;4.20;99.90;;;;;;6307049;22;20194;-94
2022/03/04 10:43:35;;;;;;;4.40;2.80;;;4.20;99.90;;;;;;6334410;22;20167;-93
2022/03/04 10:46:07;;;;;;;4.90;2.87;;;4.30;99.90;;;;;;6333979;22;20170;-93
2022/03/04 10:48:52;;;;;;;5.80;2.60;;;4.40;99.90;;;;;;6326397;22;20174;-93
2022/03/04 10:51:40;;;;;;;4.03;2.73;;;4.40;99.90;;;;;;6320857;22;20163;-93
2022/03/04 10:54:19;;;;;;;4.60;2.70;;;4.50;99.90;;;;;;6316852;22;20178;-93
2022/03/04 10:56:52;;;;;;;3.03;2.57;;;4.60;99.90;;;;;;6317383;22;20215;-95
2022/03/04 10:59:23;;;;;;;6.60;2.80;;;4.70;99.90;;;;;;6315083;22;20273;-94
2022/03/04 11:01:55;;;;;;;3.73;2.63;;;4.80;99.90;;;;;;6317613;22;20214;-92
2022/03/04 11:04:28;;;;;;;4.17;2.17;;;4.80;99.90;;;;;;6316600;22;20190;-92
2022/03/04 11:07:00;;;;;;;2.97;2.60;;;4.90;99.90;;;;;;6315820;22;20174;-92
2022/03/04 11:09:31;;;;;;;2.93;2.43;;;4.90;99.90;;;;;;6317327;22;20205;-92
2022/03/04 11:12:03;;;;;;;3.23;2.93;;;5.00;99.90;;;;;;6315036;22;20174;-94
2022/03/04 11:14:35;;;;;;;3.60;2.50;;;5.00;99.90;;;;;;6291882;22;20182;-93
2022/03/04 11:17:08;;;;;;;2.80;2.40;;;5.10;99.90;;;;;;6312490;22;20209;-95
2022/03/04 11:19:42;;;;;;;3.90;2.80;;;5.00;99.90;;;;;;6314813;22;20209;-94
2022/03/04 11:22:13;;;;;;;3.83;2.30;;;5.00;99.90;;;;;;6291466;22;20214;-95
2022/03/04 11:24:46;;;;;;;4.10;2.30;;;5.10;99.90;;;;;;6317382;22;20883;-93
2022/03/04 11:27:20;;;;;;;2.97;2.30;;;5.10;99.90;;;;;;6295544;22;20640;-93
2022/03/04 11:29:52;;;;;;;2.60;2.40;;;5.10;99.90;;;;;;6322695;22;20729;-93
2022/03/04 11:32:31;;;;;;;2.97;2.57;;;5.20;99.90;;;;;;6313916;22;20175;-91
2022/03/04 11:35:04;;;;;;;2.80;2.20;;;5.20;99.90;;;;;;6314939;22;20178;-93
2022/03/04 11:37:35;;;;;;;2.60;2.37;;;5.20;99.90;;;;;;6314762;22;20692;-93
2022/03/04 11:40:33;;;;;;;3.57;2.20;;;5.20;99.90;;;;;;6314362;22;20218;-94
2022/03/04 11:43:01;;;;;;;2.40;2.20;;;5.20;99.90;;;;;;6313738;22;20174;-92
2022/03/04 11:45:34;;;;;;;2.77;2.40;;;5.30;99.90;;;;;;6311796;22;20207;-93
2022/03/04 11:48:08;;;;;;;4.07;2.53;;;5.30;99.90;;;;;;6285595;22;20193;-94
2022/03/04 11:50:52;;;;;;;2.83;2.20;;;5.30;99.90;;;;;;6316707;22;20202;-94
2022/03/04 11:53:25;;;;;;;3.77;2.10;;;5.30;99.90;;;;;;6314436;22;20181;-93
2022/03/04 11:56:14;;;;;;;2.60;1.90;;;5.30;99.90;;;;;;6325232;22;20182;-93
2022/03/04 11:59:09;;;;;;;2.37;1.67;;;5.40;99.90;;;;;;6331938;22;20186;-93
2022/03/04 12:01:42;;;;;;;2.30;1.70;;;5.40;99.90;;;;;;6332749;22;20163;-92
2022/03/04 12:04:15;;;;;;;3.13;1.83;;;5.30;99.90;;;;;;6319151;22;20185;-92
2022/03/04 12:07:08;;;;;;;1.90;1.50;;;5.30;99.90;;;;;;6316666;22;20507;-93
2022/03/04 12:09:39;;;;;;;2.30;1.70;;;5.30;99.90;;;;;;6316913;22;20182;-94
2022/03/04 12:12:18;;;;;;;2.00;1.80;;;5.30;99.90;;;;;;6312818;22;20178;-93
2022/03/04 12:14:50;;;;;;;2.10;1.50;;;5.30;99.90;;;;;;6311691;22;20162;-94
2022/03/04 12:17:22;;;;;;;2.03;1.60;;;5.30;99.90;;;;;;6314073;22;20167;-93
2022/03/04 12:19:55;;;;;;;2.57;2.00;;;5.20;99.90;;;;;;6312301;22;20241;-93
2022/03/04 12:22:28;;;;;;;3.03;2.27;;;5.20;99.90;;;;;;6316749;22;20192;-94
2022/03/04 12:25:04;;;;;;;1.70;1.60;;;5.20;99.90;;;;;;6311680;22;20184;-93
2022/03/04 12:27:40;;;;;;;2.13;1.73;;;5.10;99.90;;;;;;6314076;22;20191;-93
2022/03/04 12:30:19;;;;;;;2.37;1.80;;;5.10;99.90;;;;;;6310840;22;20609;-93
2022/03/04 12:32:50;;;;;;;3.37;2.30;;;5.10;99.90;;;;;;6309957;22;20554;-93
2022/03/04 12:35:23;;;;;;;3.60;2.53;;;5.10;99.90;;;;;;6311423;22;20216;-94
2022/03/04 12:37:55;;;;;;;3.33;2.97;;;5.10;99.90;;;;;;6283684;22;20174;-94
2022/03/04 12:40:28;;;;;;;7.63;3.43;;;5.20;99.90;;;;;;6310873;22;20511;-94
2022/03/04 12:43:00;;;;;;;4.80;3.20;;;5.10;99.90;;;;;;6310977;22;20197;-92
2022/03/04 12:45:31;;;;;;;4.03;3.03;;;5.20;99.90;;;;;;6320436;22;20174;-90
2022/03/04 12:48:02;;;;;;;6.60;3.10;;;5.20;99.90;;;;;;6315440;22;20191;-94
2022/03/04 12:50:35;;;;;;;6.23;3.43;;;5.30;99.90;;;;;;6312859;22;20197;-93
2022/03/04 13:06:27;;;;;;;1.93;1.70;;;5.30;99.90;;;;;;5167810;27;20582;-94
2022/03/04 13:09:05;;;;;;;3.30;2.40;;;5.40;99.90;;;;;;5154194;27;20201;-93
2022/03/04 13:11:38;;;;;;;3.73;2.50;;;5.40;99.90;;;;;;5153967;27;20239;-94
2022/03/04 13:14:11;;;;;;;4.33;2.23;;;5.40;99.90;;;;;;5154018;27;20663;-93
2022/03/04 13:16:47;;;;;;;2.43;2.17;;;5.40;99.90;;;;;;5153470;27;20645;-93
2022/03/04 13:19:19;;;;;;;4.57;2.87;;;5.40;99.90;;;;;;5153633;27;20201;-93
2022/03/04 13:21:59;;;;;;;2.97;2.50;;;5.40;99.90;;;;;;5153919;27;20232;-93
2022/03/04 13:24:32;;;;;;;4.20;2.87;;;5.50;99.90;;;;;;5153023;27;20232;-94
2022/03/04 13:27:05;;;;;;;3.83;2.87;;;5.40;99.90;;;;;;5153094;27;20205;-94
2022/03/04 13:29:38;;;;;;;4.03;2.47;;;5.40;99.90;;;;;;5152777;27;20213;-93
2022/03/04 13:32:13;;;;;;;2.83;2.50;;;5.40;99.90;;;;;;5153344;27;20287;-93
2022/03/04 13:34:46;;;;;;;4.30;2.60;;;5.30;99.90;;;;;;5159054;27;20224;-92
2022/03/04 13:37:20;;;;;;;2.80;2.13;;;5.30;99.90;;;;;;5152365;27;20208;-93
2022/03/04 13:39:59;;;;;;;2.50;1.97;;;5.20;99.90;;;;;;5153912;27;20232;-94
2022/03/04 13:42:32;;;;;;;2.80;1.70;;;5.20;99.90;;;;;;5154273;27;20292;-93
2022/03/04 13:45:05;;;;;;;1.77;1.60;;;5.30;99.90;;;;;;5153177;27;20276;-93
2022/03/04 13:47:42;;;;;;;2.10;1.90;;;5.30;99.90;;;;;;5153332;27;20618;-94
2022/03/04 13:50:27;;;;;;;2.50;1.57;;;5.30;99.90;;;;;;5153095;27;20234;-94
2022/03/04 13:53:01;;;;;;;1.40;1.30;;;5.30;99.90;;;;;;5152915;27;20715;-94
2022/03/04 13:55:39;;;;;;;1.40;1.30;;;5.30;99.90;;;;;;5153714;27;20288;-93
2022/03/04 13:58:13;;;;;;;1.80;1.37;;;5.30;99.90;;;;;;5152174;27;20346;-94
2022/03/04 14:00:45;;;;;;;1.10;1.10;;;5.30;99.90;;;;;;5152391;27;20738;-94
2022/03/04 14:03:19;;;;;;;1.17;0.90;;;5.30;99.90;;;;;;5152573;27;20570;-93
2022/03/04 14:05:59;;;;;;;1.33;1.23;;;5.30;99.90;;;;;;5146214;27;20235;-93
2022/03/04 14:08:33;;;;;;;1.00;0.90;;;5.20;99.90;;;;;;5140403;27;20204;-94
2022/03/04 14:11:06;;;;;;;1.00;0.90;;;5.20;99.90;;;;;;5139212;27;20236;-93
2022/03/04 14:13:37;;;;;;;1.20;1.10;;;5.20;99.90;;;;;;5141081;27;20364;-93